sensor_id;sensor_type;location;lat;lon;timestamp;P1;durP1;ratioP1;P2;durP2;ratioP2
14096;SDS011;7125;48.106;11.544;2022-09-03T00:02:23;8.50;;;4.40;;
14096;SDS011;7125;48.106;11.544;2022-09-03T00:04:59;4.40;;;4.00;;
14096;SDS011;7125;48.106;11.544;2022-09-03T00:07:31;3.80;;;3.50;;
14096;SDS011;7125;48.106;11.544;2022-09-03T00:10:07;8.27;;;5.20;;
14096;SDS011;7125;48.106;11.544;2022-09-03T00:12:38;7.07;;;5.57;;
14096;SDS011;7125;48.106;11.544;2022-09-03T00:15:08;7.23;;;5.53;;
14096;SDS011;7125;48.106;11.544;2022-09-03T00:17:38;6.63;;;4.87;;
14096;SDS011;7125;48.106;11.544;2022-09-03T00:20:10;5.43;;;4.60;;
14096;SDS011;7125;48.106;11.544;2022-09-03T00:22:41;5.00;;;4.07;;
14096;SDS011;7125;48.106;11.544;2022-09-03T00:25:14;4.13;;;3.73;;
14096;SDS011;7125;48.106;11.544;2022-09-03T00:27:46;5.87;;;4.90;;
14096;SDS011;7125;48.106;11.544;2022-09-03T00:30:18;4.30;;;3.90;;
14096;SDS011;7125;48.106;11.544;2022-09-03T00:32:45;5.10;;;4.70;;
14096;SDS011;7125;48.106;11.544;2022-09-03T00:35:17;4.30;;;3.67;;
14096;SDS011;7125;48.106;11.544;2022-09-03T00:37:49;6.20;;;4.30;;
14096;SDS011;7125;48.106;11.544;2022-09-03T00:40:21;6.23;;;4.00;;
14096;SDS011;7125;48.106;11.544;2022-09-03T00:43:12;4.13;;;3.80;;
14096;SDS011;7125;48.106;11.544;2022-09-03T00:45:53;4.37;;;3.60;;
14096;SDS011;7125;48.106;11.544;2022-09-03T00:48:29;3.87;;;3.47;;
14096;SDS011;7125;48.106;11.544;2022-09-03T00:51:09;3.87;;;3.57;;
14096;SDS011;7125;48.106;11.544;2022-09-03T00:53:49;6.90;;;3.43;;
14096;SDS011;7125;48.106;11.544;2022-09-03T00:56:26;3.50;;;3.20;;
14096;SDS011;7125;48.106;11.544;2022-09-03T00:59:02;3.03;;;2.83;;
14096;SDS011;7125;48.106;11.544;2022-09-03T01:01:39;5.27;;;3.57;;
14096;SDS011;7125;48.106;11.544;2022-09-03T01:04:27;3.30;;;2.93;;
14096;SDS011;7125;48.106;11.544;2022-09-03T01:07:08;5.40;;;4.37;;
14096;SDS011;7125;48.106;11.544;2022-09-03T01:09:45;5.17;;;3.40;;
14096;SDS011;7125;48.106;11.544;2022-09-03T01:12:24;3.50;;;3.20;;
14096;SDS011;7125;48.106;11.544;2022-09-03T01:15:06;3.67;;;3.33;;
14096;SDS011;7125;48.106;11.544;2022-09-03T01:17:41;3.97;;;3.23;;
14096;SDS011;7125;48.106;11.544;2022-09-03T01:20:26;3.33;;;3.03;;
14096;SDS011;7125;48.106;11.544;2022-09-03T01:26:14;3.70;;;3.00;;
14096;SDS011;7125;48.106;11.544;2022-09-03T01:28:55;3.93;;;3.63;;
14096;SDS011;7125;48.106;11.544;2022-09-03T01:31:31;6.10;;;3.93;;
14096;SDS011;7125;48.106;11.544;2022-09-03T01:34:11;3.10;;;2.90;;
14096;SDS011;7125;48.106;11.544;2022-09-03T01:36:46;3.60;;;3.30;;
14096;SDS011;7125;48.106;11.544;2022-09-03T01:39:22;3.27;;;2.97;;
14096;SDS011;7125;48.106;11.544;2022-09-03T01:42:00;3.67;;;3.07;;
14096;SDS011;7125;48.106;11.544;2022-09-03T01:44:45;4.63;;;2.80;;
14096;SDS011;7125;48.106;11.544;2022-09-03T01:47:26;4.90;;;3.93;;
14096;SDS011;7125;48.106;11.544;2022-09-03T01:50:06;3.07;;;2.60;;
14096;SDS011;7125;48.106;11.544;2022-09-03T01:52:42;5.10;;;3.07;;
14096;SDS011;7125;48.106;11.544;2022-09-03T01:55:18;5.93;;;3.10;;
14096;SDS011;7125;48.106;11.544;2022-09-03T01:57:54;3.30;;;3.10;;
14096;SDS011;7125;48.106;11.544;2022-09-03T02:00:25;3.83;;;3.43;;
14096;SDS011;7125;48.106;11.544;2022-09-03T02:02:54;3.73;;;3.27;;
14096;SDS011;7125;48.106;11.544;2022-09-03T02:05:21;3.60;;;2.83;;
14096;SDS011;7125;48.106;11.544;2022-09-03T02:07:50;3.37;;;3.07;;
14096;SDS011;7125;48.106;11.544;2022-09-03T02:10:23;3.53;;;3.10;;
14096;SDS011;7125;48.106;11.544;2022-09-03T02:12:55;4.27;;;2.77;;
14096;SDS011;7125;48.106;11.544;2022-09-03T02:15:27;5.47;;;3.17;;
14096;SDS011;7125;48.106;11.544;2022-09-03T02:17:55;4.07;;;3.20;;
14096;SDS011;7125;48.106;11.544;2022-09-03T02:20:27;5.63;;;3.07;;
14096;SDS011;7125;48.106;11.544;2022-09-03T02:22:55;3.40;;;3.10;;
14096;SDS011;7125;48.106;11.544;2022-09-03T02:25:25;3.20;;;2.90;;
14096;SDS011;7125;48.106;11.544;2022-09-03T02:27:57;3.97;;;3.57;;
14096;SDS011;7125;48.106;11.544;2022-09-03T02:30:26;3.53;;;3.23;;
14096;SDS011;7125;48.106;11.544;2022-09-03T02:32:53;3.33;;;3.03;;
14096;SDS011;7125;48.106;11.544;2022-09-03T02:35:20;2.90;;;2.53;;
14096;SDS011;7125;48.106;11.544;2022-09-03T02:37:47;3.13;;;2.90;;
14096;SDS011;7125;48.106;11.544;2022-09-03T02:40:14;3.33;;;3.03;;
14096;SDS011;7125;48.106;11.544;2022-09-03T02:42:41;3.27;;;2.97;;
14096;SDS011;7125;48.106;11.544;2022-09-03T02:45:12;3.50;;;3.20;;
14096;SDS011;7125;48.106;11.544;2022-09-03T02:47:49;4.27;;;3.00;;
14096;SDS011;7125;48.106;11.544;2022-09-03T02:50:19;3.00;;;2.80;;
14096;SDS011;7125;48.106;11.544;2022-09-03T02:52:46;5.50;;;3.60;;
14096;SDS011;7125;48.106;11.544;2022-09-03T02:55:13;3.60;;;2.90;;
14096;SDS011;7125;48.106;11.544;2022-09-03T02:57:40;3.80;;;3.07;;
14096;SDS011;7125;48.106;11.544;2022-09-03T03:00:08;3.57;;;3.20;;
14096;SDS011;7125;48.106;11.544;2022-09-03T03:02:36;3.00;;;2.80;;
14096;SDS011;7125;48.106;11.544;2022-09-03T03:05:04;3.37;;;3.03;;
14096;SDS011;7125;48.106;11.544;2022-09-03T03:07:36;3.17;;;2.97;;
14096;SDS011;7125;48.106;11.544;2022-09-03T03:10:06;3.47;;;3.17;;
14096;SDS011;7125;48.106;11.544;2022-09-03T03:12:33;2.80;;;2.60;;
14096;SDS011;7125;48.106;11.544;2022-09-03T03:15:01;2.67;;;2.47;;
14096;SDS011;7125;48.106;11.544;2022-09-03T03:17:28;3.17;;;2.90;;
14096;SDS011;7125;48.106;11.544;2022-09-03T03:19:55;4.27;;;3.03;;
14096;SDS011;7125;48.106;11.544;2022-09-03T03:22:24;4.30;;;2.63;;
14096;SDS011;7125;48.106;11.544;2022-09-03T03:24:50;2.70;;;2.50;;
14096;SDS011;7125;48.106;11.544;2022-09-03T03:27:19;4.17;;;3.30;;
14096;SDS011;7125;48.106;11.544;2022-09-03T03:29:46;4.07;;;3.00;;
14096;SDS011;7125;48.106;11.544;2022-09-03T03:32:14;3.57;;;3.27;;
14096;SDS011;7125;48.106;11.544;2022-09-03T03:34:41;3.00;;;2.70;;
14096;SDS011;7125;48.106;11.544;2022-09-03T03:37:08;3.63;;;3.33;;
14096;SDS011;7125;48.106;11.544;2022-09-03T03:39:36;2.77;;;2.57;;
14096;SDS011;7125;48.106;11.544;2022-09-03T03:42:03;3.60;;;3.30;;
14096;SDS011;7125;48.106;11.544;2022-09-03T03:44:30;3.30;;;2.97;;
14096;SDS011;7125;48.106;11.544;2022-09-03T03:46:56;3.10;;;2.80;;
14096;SDS011;7125;48.106;11.544;2022-09-03T03:49:23;3.77;;;3.33;;
14096;SDS011;7125;48.106;11.544;2022-09-03T03:51:50;3.20;;;3.00;;
14096;SDS011;7125;48.106;11.544;2022-09-03T03:54:17;3.63;;;3.33;;
14096;SDS011;7125;48.106;11.544;2022-09-03T03:56:45;3.57;;;2.57;;
14096;SDS011;7125;48.106;11.544;2022-09-03T03:59:12;6.20;;;3.60;;
14096;SDS011;7125;48.106;11.544;2022-09-03T04:01:38;3.13;;;2.83;;
14096;SDS011;7125;48.106;11.544;2022-09-03T04:04:05;3.70;;;3.40;;
14096;SDS011;7125;48.106;11.544;2022-09-03T04:06:32;4.57;;;3.10;;
14096;SDS011;7125;48.106;11.544;2022-09-03T04:08:59;4.77;;;3.17;;
14096;SDS011;7125;48.106;11.544;2022-09-03T04:11:26;3.50;;;3.20;;
14096;SDS011;7125;48.106;11.544;2022-09-03T04:13:54;3.43;;;2.90;;
14096;SDS011;7125;48.106;11.544;2022-09-03T04:16:22;2.73;;;2.53;;
14096;SDS011;7125;48.106;11.544;2022-09-03T04:18:50;2.87;;;2.60;;
14096;SDS011;7125;48.106;11.544;2022-09-03T04:21:18;8.03;;;3.00;;
14096;SDS011;7125;48.106;11.544;2022-09-03T04:23:47;3.63;;;2.87;;
14096;SDS011;7125;48.106;11.544;2022-09-03T04:26:16;3.23;;;3.00;;
14096;SDS011;7125;48.106;11.544;2022-09-03T04:28:44;3.33;;;3.07;;
14096;SDS011;7125;48.106;11.544;2022-09-03T04:31:13;3.80;;;2.97;;
14096;SDS011;7125;48.106;11.544;2022-09-03T04:33:41;3.70;;;3.40;;
14096;SDS011;7125;48.106;11.544;2022-09-03T04:36:08;3.00;;;2.80;;
14096;SDS011;7125;48.106;11.544;2022-09-03T04:38:37;3.97;;;3.67;;
14096;SDS011;7125;48.106;11.544;2022-09-03T04:41:06;2.93;;;2.70;;
14096;SDS011;7125;48.106;11.544;2022-09-03T04:43:34;3.00;;;2.73;;
14096;SDS011;7125;48.106;11.544;2022-09-03T04:46:03;3.30;;;2.83;;
14096;SDS011;7125;48.106;11.544;2022-09-03T04:48:33;2.80;;;2.60;;
14096;SDS011;7125;48.106;11.544;2022-09-03T04:51:02;3.73;;;3.40;;
14096;SDS011;7125;48.106;11.544;2022-09-03T04:53:30;3.13;;;2.90;;
14096;SDS011;7125;48.106;11.544;2022-09-03T04:55:58;2.87;;;2.57;;
14096;SDS011;7125;48.106;11.544;2022-09-03T04:58:26;6.30;;;3.40;;
14096;SDS011;7125;48.106;11.544;2022-09-03T05:00:53;3.53;;;3.07;;
14096;SDS011;7125;48.106;11.544;2022-09-03T05:03:20;4.33;;;2.93;;
14096;SDS011;7125;48.106;11.544;2022-09-03T05:05:52;2.63;;;2.43;;
14096;SDS011;7125;48.106;11.544;2022-09-03T05:08:20;3.70;;;3.13;;
14096;SDS011;7125;48.106;11.544;2022-09-03T05:10:47;5.33;;;3.13;;
14096;SDS011;7125;48.106;11.544;2022-09-03T05:13:14;4.13;;;3.57;;
14096;SDS011;7125;48.106;11.544;2022-09-03T05:15:41;5.07;;;3.03;;
14096;SDS011;7125;48.106;11.544;2022-09-03T05:18:09;5.23;;;3.13;;
14096;SDS011;7125;48.106;11.544;2022-09-03T05:20:37;3.20;;;2.90;;
14096;SDS011;7125;48.106;11.544;2022-09-03T05:23:05;4.00;;;2.57;;
14096;SDS011;7125;48.106;11.544;2022-09-03T05:25:32;3.33;;;2.63;;
14096;SDS011;7125;48.106;11.544;2022-09-03T05:27:59;3.53;;;3.33;;
14096;SDS011;7125;48.106;11.544;2022-09-03T05:30:26;3.30;;;3.03;;
14096;SDS011;7125;48.106;11.544;2022-09-03T05:32:54;2.77;;;2.53;;
14096;SDS011;7125;48.106;11.544;2022-09-03T05:35:21;3.30;;;3.00;;
14096;SDS011;7125;48.106;11.544;2022-09-03T05:37:53;6.33;;;3.43;;
14096;SDS011;7125;48.106;11.544;2022-09-03T05:40:22;3.90;;;2.77;;
14096;SDS011;7125;48.106;11.544;2022-09-03T05:42:53;3.47;;;2.83;;
14096;SDS011;7125;48.106;11.544;2022-09-03T05:45:22;3.67;;;2.87;;
14096;SDS011;7125;48.106;11.544;2022-09-03T05:47:49;3.00;;;2.80;;
14096;SDS011;7125;48.106;11.544;2022-09-03T05:50:16;2.67;;;2.27;;
14096;SDS011;7125;48.106;11.544;2022-09-03T05:52:43;2.90;;;2.70;;
14096;SDS011;7125;48.106;11.544;2022-09-03T05:55:10;3.17;;;2.67;;
14096;SDS011;7125;48.106;11.544;2022-09-03T05:57:38;3.30;;;3.00;;
14096;SDS011;7125;48.106;11.544;2022-09-03T06:00:05;2.87;;;2.67;;
14096;SDS011;7125;48.106;11.544;2022-09-03T06:02:37;3.30;;;3.00;;
14096;SDS011;7125;48.106;11.544;2022-09-03T06:05:04;2.73;;;2.53;;
14096;SDS011;7125;48.106;11.544;2022-09-03T06:07:32;2.80;;;2.60;;
14096;SDS011;7125;48.106;11.544;2022-09-03T06:09:58;2.70;;;2.50;;
14096;SDS011;7125;48.106;11.544;2022-09-03T06:12:25;2.57;;;2.37;;
14096;SDS011;7125;48.106;11.544;2022-09-03T06:14:53;3.63;;;3.33;;
14096;SDS011;7125;48.106;11.544;2022-09-03T06:17:20;3.20;;;2.90;;
14096;SDS011;7125;48.106;11.544;2022-09-03T06:19:47;3.17;;;2.60;;
14096;SDS011;7125;48.106;11.544;2022-09-03T06:22:14;3.40;;;2.90;;
14096;SDS011;7125;48.106;11.544;2022-09-03T06:24:41;4.23;;;3.20;;
14096;SDS011;7125;48.106;11.544;2022-09-03T06:27:08;3.37;;;3.07;;
14096;SDS011;7125;48.106;11.544;2022-09-03T06:29:34;3.57;;;3.30;;
14096;SDS011;7125;48.106;11.544;2022-09-03T06:32:04;3.63;;;3.33;;
14096;SDS011;7125;48.106;11.544;2022-09-03T06:34:31;3.10;;;2.83;;
14096;SDS011;7125;48.106;11.544;2022-09-03T06:36:58;2.87;;;2.67;;
14096;SDS011;7125;48.106;11.544;2022-09-03T06:39:24;3.17;;;2.83;;
14096;SDS011;7125;48.106;11.544;2022-09-03T06:41:51;4.07;;;2.63;;
14096;SDS011;7125;48.106;11.544;2022-09-03T06:44:25;3.00;;;2.57;;
14096;SDS011;7125;48.106;11.544;2022-09-03T06:46:52;2.57;;;2.40;;
14096;SDS011;7125;48.106;11.544;2022-09-03T06:49:20;2.57;;;2.37;;
14096;SDS011;7125;48.106;11.544;2022-09-03T06:51:49;3.83;;;2.27;;
14096;SDS011;7125;48.106;11.544;2022-09-03T06:54:16;3.05;;;2.55;;
14096;SDS011;7125;48.106;11.544;2022-09-03T06:56:43;4.30;;;2.97;;
14096;SDS011;7125;48.106;11.544;2022-09-03T06:59:10;4.35;;;2.63;;
14096;SDS011;7125;48.106;11.544;2022-09-03T07:01:38;2.70;;;2.53;;
14096;SDS011;7125;48.106;11.544;2022-09-03T07:04:06;6.60;;;3.20;;
14096;SDS011;7125;48.106;11.544;2022-09-03T07:06:36;2.53;;;2.27;;
14096;SDS011;7125;48.106;11.544;2022-09-03T07:09:04;2.58;;;2.03;;
14096;SDS011;7125;48.106;11.544;2022-09-03T07:11:32;2.53;;;2.33;;
14096;SDS011;7125;48.106;11.544;2022-09-03T07:14:00;6.63;;;2.83;;
14096;SDS011;7125;48.106;11.544;2022-09-03T07:16:29;3.90;;;2.57;;
14096;SDS011;7125;48.106;11.544;2022-09-03T07:18:58;5.13;;;2.53;;
14096;SDS011;7125;48.106;11.544;2022-09-03T07:21:28;3.97;;;2.87;;
14096;SDS011;7125;48.106;11.544;2022-09-03T07:23:57;2.60;;;2.40;;
14096;SDS011;7125;48.106;11.544;2022-09-03T07:26:25;2.97;;;2.63;;
14096;SDS011;7125;48.106;11.544;2022-09-03T07:28:54;3.20;;;2.88;;
14096;SDS011;7125;48.106;11.544;2022-09-03T07:31:22;4.35;;;2.45;;
14096;SDS011;7125;48.106;11.544;2022-09-03T07:33:52;2.47;;;2.33;;
14096;SDS011;7125;48.106;11.544;2022-09-03T07:36:21;3.03;;;2.80;;
14096;SDS011;7125;48.106;11.544;2022-09-03T07:38:49;3.40;;;2.78;;
14096;SDS011;7125;48.106;11.544;2022-09-03T07:41:17;2.63;;;2.42;;
14096;SDS011;7125;48.106;11.544;2022-09-03T07:43:45;2.73;;;2.53;;
14096;SDS011;7125;48.106;11.544;2022-09-03T07:46:13;3.23;;;3.03;;
14096;SDS011;7125;48.106;11.544;2022-09-03T07:48:45;2.60;;;2.27;;
14096;SDS011;7125;48.106;11.544;2022-09-03T07:51:13;6.57;;;3.00;;
14096;SDS011;7125;48.106;11.544;2022-09-03T07:53:41;5.27;;;3.37;;
14096;SDS011;7125;48.106;11.544;2022-09-03T07:56:08;4.77;;;3.43;;
14096;SDS011;7125;48.106;11.544;2022-09-03T07:58:37;3.80;;;2.97;;
14096;SDS011;7125;48.106;11.544;2022-09-03T08:01:05;4.50;;;4.10;;
14096;SDS011;7125;48.106;11.544;2022-09-03T08:03:33;4.47;;;4.07;;
14096;SDS011;7125;48.106;11.544;2022-09-03T08:06:00;4.27;;;3.87;;
14096;SDS011;7125;48.106;11.544;2022-09-03T08:08:28;3.70;;;3.40;;
14096;SDS011;7125;48.106;11.544;2022-09-03T08:11:02;4.13;;;3.70;;
14096;SDS011;7125;48.106;11.544;2022-09-03T08:13:36;4.20;;;3.90;;
14096;SDS011;7125;48.106;11.544;2022-09-03T08:16:05;7.40;;;4.40;;
14096;SDS011;7125;48.106;11.544;2022-09-03T08:18:32;5.20;;;4.13;;
14096;SDS011;7125;48.106;11.544;2022-09-03T08:21:02;4.07;;;3.78;;
14096;SDS011;7125;48.106;11.544;2022-09-03T08:23:31;4.72;;;4.32;;
14096;SDS011;7125;48.106;11.544;2022-09-03T08:25:58;6.33;;;3.87;;
14096;SDS011;7125;48.106;11.544;2022-09-03T08:28:26;4.65;;;4.22;;
14096;SDS011;7125;48.106;11.544;2022-09-03T08:30:55;4.78;;;3.78;;
14096;SDS011;7125;48.106;11.544;2022-09-03T08:33:23;5.65;;;4.28;;
14096;SDS011;7125;48.106;11.544;2022-09-03T08:36:02;6.10;;;5.47;;
14096;SDS011;7125;48.106;11.544;2022-09-03T08:38:30;5.25;;;4.90;;
14096;SDS011;7125;48.106;11.544;2022-09-03T08:41:04;6.45;;;5.05;;
14096;SDS011;7125;48.106;11.544;2022-09-03T08:43:37;7.13;;;6.40;;
14096;SDS011;7125;48.106;11.544;2022-09-03T08:46:15;6.07;;;5.38;;
14096;SDS011;7125;48.106;11.544;2022-09-03T08:48:42;5.85;;;5.32;;
14096;SDS011;7125;48.106;11.544;2022-09-03T08:51:10;5.75;;;5.25;;
14096;SDS011;7125;48.106;11.544;2022-09-03T08:53:43;4.82;;;4.43;;
14096;SDS011;7125;48.106;11.544;2022-09-03T08:56:13;6.28;;;4.10;;
14096;SDS011;7125;48.106;11.544;2022-09-03T08:58:47;5.68;;;4.43;;
14096;SDS011;7125;48.106;11.544;2022-09-03T09:01:16;4.75;;;3.53;;
14096;SDS011;7125;48.106;11.544;2022-09-03T09:03:52;3.63;;;3.40;;
14096;SDS011;7125;48.106;11.544;2022-09-03T09:06:28;4.38;;;4.05;;
14096;SDS011;7125;48.106;11.544;2022-09-03T09:09:02;3.90;;;3.65;;
14096;SDS011;7125;48.106;11.544;2022-09-03T09:11:43;3.58;;;3.28;;
14096;SDS011;7125;48.106;11.544;2022-09-03T09:14:17;3.45;;;3.25;;
14096;SDS011;7125;48.106;11.544;2022-09-03T09:16:53;3.67;;;3.38;;
14096;SDS011;7125;48.106;11.544;2022-09-03T09:22:24;3.60;;;3.30;;
14096;SDS011;7125;48.106;11.544;2022-09-03T09:24:55;3.45;;;3.25;;
14096;SDS011;7125;48.106;11.544;2022-09-03T09:27:25;3.67;;;3.38;;
14096;SDS011;7125;48.106;11.544;2022-09-03T09:29:54;5.60;;;3.25;;
14096;SDS011;7125;48.106;11.544;2022-09-03T09:32:28;3.03;;;2.70;;
14096;SDS011;7125;48.106;11.544;2022-09-03T09:34:56;4.88;;;3.33;;
14096;SDS011;7125;48.106;11.544;2022-09-03T09:37:23;3.67;;;3.38;;
14096;SDS011;7125;48.106;11.544;2022-09-03T09:39:53;3.97;;;2.50;;
14096;SDS011;7125;48.106;11.544;2022-09-03T09:42:22;2.65;;;2.45;;
14096;SDS011;7125;48.106;11.544;2022-09-03T09:44:49;4.68;;;3.33;;
14096;SDS011;7125;48.106;11.544;2022-09-03T09:47:20;3.05;;;2.72;;
14096;SDS011;7125;48.106;11.544;2022-09-03T09:49:52;3.17;;;2.63;;
14096;SDS011;7125;48.106;11.544;2022-09-03T09:52:20;2.53;;;2.33;;
14096;SDS011;7125;48.106;11.544;2022-09-03T09:54:50;3.38;;;2.42;;
14096;SDS011;7125;48.106;11.544;2022-09-03T09:57:20;1.95;;;1.85;;
14096;SDS011;7125;48.106;11.544;2022-09-03T09:59:49;1.65;;;1.55;;
14096;SDS011;7125;48.106;11.544;2022-09-03T10:02:37;1.60;;;1.50;;
14096;SDS011;7125;48.106;11.544;2022-09-03T10:05:14;2.25;;;1.65;;
14096;SDS011;7125;48.106;11.544;2022-09-03T10:07:53;1.90;;;1.70;;
14096;SDS011;7125;48.106;11.544;2022-09-03T10:10:20;1.83;;;1.73;;
14096;SDS011;7125;48.106;11.544;2022-09-03T10:12:50;1.58;;;1.48;;
14096;SDS011;7125;48.106;11.544;2022-09-03T10:15:24;1.45;;;1.35;;
14096;SDS011;7125;48.106;11.544;2022-09-03T10:17:56;2.60;;;1.60;;
14096;SDS011;7125;48.106;11.544;2022-09-03T10:20:32;2.33;;;1.70;;
14096;SDS011;7125;48.106;11.544;2022-09-03T10:23:10;1.60;;;1.50;;
14096;SDS011;7125;48.106;11.544;2022-09-03T10:25:43;2.30;;;2.10;;
14096;SDS011;7125;48.106;11.544;2022-09-03T10:28:17;2.08;;;1.98;;
14096;SDS011;7125;48.106;11.544;2022-09-03T10:33:47;2.13;;;2.00;;
14096;SDS011;7125;48.106;11.544;2022-09-03T10:36:22;1.58;;;1.48;;
14096;SDS011;7125;48.106;11.544;2022-09-03T10:38:52;2.30;;;1.40;;
14096;SDS011;7125;48.106;11.544;2022-09-03T10:41:27;1.50;;;1.40;;
14096;SDS011;7125;48.106;11.544;2022-09-03T10:44:13;2.88;;;2.00;;
14096;SDS011;7125;48.106;11.544;2022-09-03T10:47:06;2.17;;;1.23;;
14096;SDS011;7125;48.106;11.544;2022-09-03T10:49:48;1.55;;;1.45;;
14096;SDS011;7125;48.106;11.544;2022-09-03T10:52:24;1.55;;;1.45;;
14096;SDS011;7125;48.106;11.544;2022-09-03T10:54:59;1.40;;;1.25;;
14096;SDS011;7125;48.106;11.544;2022-09-03T10:57:40;3.05;;;1.23;;
14096;SDS011;7125;48.106;11.544;2022-09-03T11:00:13;1.55;;;1.45;;
14096;SDS011;7125;48.106;11.544;2022-09-03T11:05:16;1.38;;;1.27;;
14096;SDS011;7125;48.106;11.544;2022-09-03T11:07:48;1.23;;;1.20;;
14096;SDS011;7125;48.106;11.544;2022-09-03T11:15:38;2.15;;;1.60;;
14096;SDS011;7125;48.106;11.544;2022-09-03T11:18:13;1.58;;;1.48;;
14096;SDS011;7125;48.106;11.544;2022-09-03T11:20:45;1.25;;;1.17;;
14096;SDS011;7125;48.106;11.544;2022-09-03T11:23:16;3.10;;;1.42;;
14096;SDS011;7125;48.106;11.544;2022-09-03T11:25:45;1.83;;;1.73;;
14096;SDS011;7125;48.106;11.544;2022-09-03T11:28:20;1.58;;;1.48;;
14096;SDS011;7125;48.106;11.544;2022-09-03T11:33:28;1.70;;;1.60;;
14096;SDS011;7125;48.106;11.544;2022-09-03T11:35:57;1.38;;;1.27;;
14096;SDS011;7125;48.106;11.544;2022-09-03T11:38:28;1.88;;;1.42;;
14096;SDS011;7125;48.106;11.544;2022-09-03T11:40:57;1.55;;;1.38;;
14096;SDS011;7125;48.106;11.544;2022-09-03T11:43:27;1.38;;;1.27;;
14096;SDS011;7125;48.106;11.544;2022-09-03T11:46:03;2.00;;;1.50;;
14096;SDS011;7125;48.106;11.544;2022-09-03T11:48:37;1.40;;;1.30;;
14096;SDS011;7125;48.106;11.544;2022-09-03T11:51:18;1.45;;;1.35;;
14096;SDS011;7125;48.106;11.544;2022-09-03T11:53:56;1.30;;;1.20;;
14096;SDS011;7125;48.106;11.544;2022-09-03T11:56:24;1.55;;;1.25;;
14096;SDS011;7125;48.106;11.544;2022-09-03T11:58:58;1.38;;;1.27;;
14096;SDS011;7125;48.106;11.544;2022-09-03T12:01:31;1.30;;;1.20;;
14096;SDS011;7125;48.106;11.544;2022-09-03T12:04:00;1.30;;;1.27;;
14096;SDS011;7125;48.106;11.544;2022-09-03T12:09:34;1.75;;;1.60;;
14096;SDS011;7125;48.106;11.544;2022-09-03T12:12:25;1.73;;;1.63;;
14096;SDS011;7125;48.106;11.544;2022-09-03T12:15:08;1.50;;;1.40;;
14096;SDS011;7125;48.106;11.544;2022-09-03T12:17:44;1.42;;;1.33;;
14096;SDS011;7125;48.106;11.544;2022-09-03T12:25:48;1.70;;;1.60;;
14096;SDS011;7125;48.106;11.544;2022-09-03T12:28:19;1.38;;;1.27;;
14096;SDS011;7125;48.106;11.544;2022-09-03T12:30:48;1.60;;;1.50;;
14096;SDS011;7125;48.106;11.544;2022-09-03T12:33:18;1.90;;;1.80;;
14096;SDS011;7125;48.106;11.544;2022-09-03T12:35:54;1.52;;;1.42;;
14096;SDS011;7125;48.106;11.544;2022-09-03T12:38:22;1.25;;;1.13;;
14096;SDS011;7125;48.106;11.544;2022-09-03T12:43:27;1.55;;;1.40;;
14096;SDS011;7125;48.106;11.544;2022-09-03T12:48:36;1.33;;;1.23;;
14096;SDS011;7125;48.106;11.544;2022-09-03T12:51:03;1.50;;;1.40;;
14096;SDS011;7125;48.106;11.544;2022-09-03T12:53:30;2.08;;;1.27;;
14096;SDS011;7125;48.106;11.544;2022-09-03T12:56:01;4.03;;;1.30;;
14096;SDS011;7125;48.106;11.544;2022-09-03T12:58:31;1.25;;;1.25;;
14096;SDS011;7125;48.106;11.544;2022-09-03T13:01:03;2.20;;;1.17;;
14096;SDS011;7125;48.106;11.544;2022-09-03T13:06:02;1.55;;;1.45;;
14096;SDS011;7125;48.106;11.544;2022-09-03T13:08:37;1.35;;;1.25;;
14096;SDS011;7125;48.106;11.544;2022-09-03T13:11:13;2.05;;;1.45;;
14096;SDS011;7125;48.106;11.544;2022-09-03T13:21:35;1.60;;;1.50;;
14096;SDS011;7125;48.106;11.544;2022-09-03T13:24:16;1.55;;;1.15;;
14096;SDS011;7125;48.106;11.544;2022-09-03T13:32:07;1.50;;;1.40;;
14096;SDS011;7125;48.106;11.544;2022-09-03T13:37:24;1.92;;;1.48;;
14096;SDS011;7125;48.106;11.544;2022-09-03T13:39:56;1.67;;;1.58;;
14096;SDS011;7125;48.106;11.544;2022-09-03T13:42:25;2.88;;;1.88;;
14096;SDS011;7125;48.106;11.544;2022-09-03T13:45:02;1.50;;;1.40;;
14096;SDS011;7125;48.106;11.544;2022-09-03T13:47:39;1.70;;;1.60;;
14096;SDS011;7125;48.106;11.544;2022-09-03T13:50:37;1.90;;;1.80;;
14096;SDS011;7125;48.106;11.544;2022-09-03T13:53:11;1.77;;;1.67;;
14096;SDS011;7125;48.106;11.544;2022-09-03T13:55:44;2.25;;;1.92;;
14096;SDS011;7125;48.106;11.544;2022-09-03T13:58:18;1.30;;;1.30;;
14096;SDS011;7125;48.106;11.544;2022-09-03T14:00:52;1.83;;;1.73;;
14096;SDS011;7125;48.106;11.544;2022-09-03T14:03:34;1.95;;;1.83;;
14096;SDS011;7125;48.106;11.544;2022-09-03T14:11:29;1.67;;;1.58;;
14096;SDS011;7125;48.106;11.544;2022-09-03T14:16:35;3.70;;;2.28;;
14096;SDS011;7125;48.106;11.544;2022-09-03T14:24:33;1.60;;;1.50;;
14096;SDS011;7125;48.106;11.544;2022-09-03T14:27:11;3.90;;;1.52;;
14096;SDS011;7125;48.106;11.544;2022-09-03T14:29:48;5.00;;;1.83;;
14096;SDS011;7125;48.106;11.544;2022-09-03T14:32:21;4.97;;;2.03;;
14096;SDS011;7125;48.106;11.544;2022-09-03T14:38:12;3.10;;;2.00;;
14096;SDS011;7125;48.106;11.544;2022-09-03T14:40:49;9.60;;;2.38;;
14096;SDS011;7125;48.106;11.544;2022-09-03T14:43:30;2.00;;;1.88;;
14096;SDS011;7125;48.106;11.544;2022-09-03T14:46:19;3.28;;;1.48;;
14096;SDS011;7125;48.106;11.544;2022-09-03T14:49:02;4.40;;;2.22;;
14096;SDS011;7125;48.106;11.544;2022-09-03T14:51:43;2.63;;;1.67;;
14096;SDS011;7125;48.106;11.544;2022-09-03T14:54:29;4.05;;;1.35;;
14096;SDS011;7125;48.106;11.544;2022-09-03T14:57:11;5.38;;;1.58;;
14096;SDS011;7125;48.106;11.544;2022-09-03T14:59:59;2.08;;;1.33;;
14096;SDS011;7125;48.106;11.544;2022-09-03T15:06:01;3.07;;;1.50;;
14096;SDS011;7125;48.106;11.544;2022-09-03T15:08:38;2.88;;;1.48;;
14096;SDS011;7125;48.106;11.544;2022-09-03T15:11:16;2.90;;;1.98;;
14096;SDS011;7125;48.106;11.544;2022-09-03T15:13:47;2.15;;;1.95;;
14096;SDS011;7125;48.106;11.544;2022-09-03T15:16:28;3.95;;;1.75;;
14096;SDS011;7125;48.106;11.544;2022-09-03T15:19:09;5.70;;;1.93;;
14096;SDS011;7125;48.106;11.544;2022-09-03T15:21:44;2.72;;;1.73;;
14096;SDS011;7125;48.106;11.544;2022-09-03T15:24:25;4.35;;;2.55;;
14096;SDS011;7125;48.106;11.544;2022-09-03T15:27:05;3.03;;;1.85;;
14096;SDS011;7125;48.106;11.544;2022-09-03T15:29:47;2.75;;;1.70;;
14096;SDS011;7125;48.106;11.544;2022-09-03T15:32:25;5.18;;;2.10;;
14096;SDS011;7125;48.106;11.544;2022-09-03T15:35:01;4.50;;;2.15;;
14096;SDS011;7125;48.106;11.544;2022-09-03T15:37:32;3.53;;;1.80;;
14096;SDS011;7125;48.106;11.544;2022-09-03T15:40:05;2.92;;;1.50;;
14096;SDS011;7125;48.106;11.544;2022-09-03T15:42:41;4.15;;;1.85;;
14096;SDS011;7125;48.106;11.544;2022-09-03T15:45:13;3.03;;;1.95;;
14096;SDS011;7125;48.106;11.544;2022-09-03T15:47:50;4.95;;;2.20;;
14096;SDS011;7125;48.106;11.544;2022-09-03T15:54:09;4.38;;;1.65;;
14096;SDS011;7125;48.106;11.544;2022-09-03T15:56:42;3.22;;;2.92;;
14096;SDS011;7125;48.106;11.544;2022-09-03T15:59:17;2.22;;;1.90;;
14096;SDS011;7125;48.106;11.544;2022-09-03T16:01:51;3.92;;;1.45;;
14096;SDS011;7125;48.106;11.544;2022-09-03T16:04:31;2.63;;;2.00;;
14096;SDS011;7125;48.106;11.544;2022-09-03T16:07:16;1.52;;;1.42;;
14096;SDS011;7125;48.106;11.544;2022-09-03T16:09:52;5.10;;;4.22;;
14096;SDS011;7125;48.106;11.544;2022-09-03T16:12:27;4.07;;;1.87;;
14096;SDS011;7125;48.106;11.544;2022-09-03T16:15:01;2.13;;;1.98;;
14096;SDS011;7125;48.106;11.544;2022-09-03T16:17:34;2.22;;;1.83;;
14096;SDS011;7125;48.106;11.544;2022-09-03T16:20:06;4.68;;;1.92;;
14096;SDS011;7125;48.106;11.544;2022-09-03T16:22:42;2.38;;;1.85;;
14096;SDS011;7125;48.106;11.544;2022-09-03T16:25:13;1.75;;;1.65;;
14096;SDS011;7125;48.106;11.544;2022-09-03T16:27:50;2.10;;;1.70;;
14096;SDS011;7125;48.106;11.544;2022-09-03T16:30:27;2.05;;;1.58;;
14096;SDS011;7125;48.106;11.544;2022-09-03T16:33:05;4.25;;;1.95;;